sensor_id;sensor_type;location;lat;lon;timestamp;P1;durP1;ratioP1;P2;durP2;ratioP2
3217;SDS011;1621;49.702;8.618;2022-10-31T00:00:58;9.37;;;6.07;;
3217;SDS011;1621;49.702;8.618;2022-10-31T00:03:25;16.77;;;6.00;;
3217;SDS011;1621;49.702;8.618;2022-10-31T00:05:52;13.27;;;6.60;;
3217;SDS011;1621;49.702;8.618;2022-10-31T00:08:18;13.93;;;5.97;;
3217;SDS011;1621;49.702;8.618;2022-10-31T00:10:45;16.13;;;5.90;;
3217;SDS011;1621;49.702;8.618;2022-10-31T00:13:12;11.83;;;7.47;;
3217;SDS011;1621;49.702;8.618;2022-10-31T00:15:40;11.83;;;5.70;;
3217;SDS011;1621;49.702;8.618;2022-10-31T00:18:07;10.10;;;5.50;;
3217;SDS011;1621;49.702;8.618;2022-10-31T00:20:34;13.67;;;6.40;;
3217;SDS011;1621;49.702;8.618;2022-10-31T00:23:00;14.33;;;5.50;;
3217;SDS011;1621;49.702;8.618;2022-10-31T00:25:28;13.00;;;5.83;;
3217;SDS011;1621;49.702;8.618;2022-10-31T00:27:54;15.67;;;6.40;;
3217;SDS011;1621;49.702;8.618;2022-10-31T00:30:20;10.23;;;5.87;;
3217;SDS011;1621;49.702;8.618;2022-10-31T00:32:48;21.07;;;5.87;;
3217;SDS011;1621;49.702;8.618;2022-10-31T00:35:14;11.57;;;5.80;;
3217;SDS011;1621;49.702;8.618;2022-10-31T00:37:41;9.03;;;6.10;;
3217;SDS011;1621;49.702;8.618;2022-10-31T00:40:08;11.87;;;6.63;;
3217;SDS011;1621;49.702;8.618;2022-10-31T00:42:34;12.10;;;6.60;;
3217;SDS011;1621;49.702;8.618;2022-10-31T00:45:01;10.23;;;5.63;;
3217;SDS011;1621;49.702;8.618;2022-10-31T00:47:27;11.27;;;6.53;;
3217;SDS011;1621;49.702;8.618;2022-10-31T00:49:54;13.30;;;6.63;;
3217;SDS011;1621;49.702;8.618;2022-10-31T00:52:21;11.20;;;5.73;;
3217;SDS011;1621;49.702;8.618;2022-10-31T00:54:47;14.07;;;5.73;;
3217;SDS011;1621;49.702;8.618;2022-10-31T00:57:13;14.53;;;6.40;;
3217;SDS011;1621;49.702;8.618;2022-10-31T00:59:40;11.60;;;5.60;;
3217;SDS011;1621;49.702;8.618;2022-10-31T01:02:06;12.17;;;6.60;;
3217;SDS011;1621;49.702;8.618;2022-10-31T01:04:32;10.33;;;5.60;;
3217;SDS011;1621;49.702;8.618;2022-10-31T01:07:00;11.60;;;6.30;;
3217;SDS011;1621;49.702;8.618;2022-10-31T01:09:29;14.57;;;7.07;;
3217;SDS011;1621;49.702;8.618;2022-10-31T01:11:56;12.00;;;6.70;;
3217;SDS011;1621;49.702;8.618;2022-10-31T01:14:22;10.23;;;5.67;;
3217;SDS011;1621;49.702;8.618;2022-10-31T01:16:48;11.87;;;5.93;;
3217;SDS011;1621;49.702;8.618;2022-10-31T01:19:15;9.80;;;5.77;;
3217;SDS011;1621;49.702;8.618;2022-10-31T01:21:41;13.77;;;6.20;;
3217;SDS011;1621;49.702;8.618;2022-10-31T01:24:09;12.20;;;6.20;;
3217;SDS011;1621;49.702;8.618;2022-10-31T01:26:35;10.47;;;5.50;;
3217;SDS011;1621;49.702;8.618;2022-10-31T01:29:03;11.47;;;5.63;;
3217;SDS011;1621;49.702;8.618;2022-10-31T01:31:31;10.30;;;5.30;;
3217;SDS011;1621;49.702;8.618;2022-10-31T01:33:58;8.80;;;5.90;;
3217;SDS011;1621;49.702;8.618;2022-10-31T01:36:25;12.73;;;5.50;;
3217;SDS011;1621;49.702;8.618;2022-10-31T01:38:53;9.00;;;5.87;;
3217;SDS011;1621;49.702;8.618;2022-10-31T01:41:21;13.20;;;5.90;;
3217;SDS011;1621;49.702;8.618;2022-10-31T01:43:49;14.67;;;6.23;;
3217;SDS011;1621;49.702;8.618;2022-10-31T01:46:16;10.57;;;5.10;;
3217;SDS011;1621;49.702;8.618;2022-10-31T01:48:44;11.37;;;5.83;;
3217;SDS011;1621;49.702;8.618;2022-10-31T01:51:10;11.37;;;5.53;;
3217;SDS011;1621;49.702;8.618;2022-10-31T01:53:38;12.90;;;5.53;;
3217;SDS011;1621;49.702;8.618;2022-10-31T01:56:05;12.83;;;5.80;;
3217;SDS011;1621;49.702;8.618;2022-10-31T01:58:33;13.57;;;6.43;;
3217;SDS011;1621;49.702;8.618;2022-10-31T02:01:00;12.23;;;5.80;;
3217;SDS011;1621;49.702;8.618;2022-10-31T02:03:27;14.10;;;6.20;;
3217;SDS011;1621;49.702;8.618;2022-10-31T02:05:54;11.60;;;5.73;;
3217;SDS011;1621;49.702;8.618;2022-10-31T02:08:21;12.03;;;5.60;;
3217;SDS011;1621;49.702;8.618;2022-10-31T02:10:49;13.03;;;6.37;;
3217;SDS011;1621;49.702;8.618;2022-10-31T02:13:15;9.67;;;5.40;;
3217;SDS011;1621;49.702;8.618;2022-10-31T02:15:43;11.53;;;5.70;;
3217;SDS011;1621;49.702;8.618;2022-10-31T02:18:11;9.77;;;5.83;;
3217;SDS011;1621;49.702;8.618;2022-10-31T02:20:39;14.27;;;5.33;;
3217;SDS011;1621;49.702;8.618;2022-10-31T02:26:00;11.07;;;5.70;;
3217;SDS011;1621;49.702;8.618;2022-10-31T02:28:34;10.00;;;6.47;;
3217;SDS011;1621;49.702;8.618;2022-10-31T02:31:12;10.20;;;6.10;;
3217;SDS011;1621;49.702;8.618;2022-10-31T02:33:43;10.30;;;5.90;;
3217;SDS011;1621;49.702;8.618;2022-10-31T02:36:12;10.73;;;5.67;;
3217;SDS011;1621;49.702;8.618;2022-10-31T02:38:44;11.90;;;5.93;;
3217;SDS011;1621;49.702;8.618;2022-10-31T02:41:15;7.60;;;5.27;;
3217;SDS011;1621;49.702;8.618;2022-10-31T02:43:45;11.57;;;5.67;;
3217;SDS011;1621;49.702;8.618;2022-10-31T02:46:18;9.60;;;5.73;;
3217;SDS011;1621;49.702;8.618;2022-10-31T02:48:45;10.10;;;5.20;;
3217;SDS011;1621;49.702;8.618;2022-10-31T02:51:12;7.87;;;5.43;;
3217;SDS011;1621;49.702;8.618;2022-10-31T02:53:39;8.53;;;5.43;;
3217;SDS011;1621;49.702;8.618;2022-10-31T02:56:06;13.73;;;5.43;;
3217;SDS011;1621;49.702;8.618;2022-10-31T02:58:33;10.60;;;5.80;;
3217;SDS011;1621;49.702;8.618;2022-10-31T03:01:07;9.00;;;5.10;;
3217;SDS011;1621;49.702;8.618;2022-10-31T03:03:38;9.60;;;5.90;;
3217;SDS011;1621;49.702;8.618;2022-10-31T03:06:08;10.20;;;5.73;;
3217;SDS011;1621;49.702;8.618;2022-10-31T03:08:37;9.93;;;5.80;;
3217;SDS011;1621;49.702;8.618;2022-10-31T03:11:06;7.73;;;5.40;;
3217;SDS011;1621;49.702;8.618;2022-10-31T03:13:34;12.63;;;6.37;;
3217;SDS011;1621;49.702;8.618;2022-10-31T03:16:03;10.20;;;5.27;;
3217;SDS011;1621;49.702;8.618;2022-10-31T03:18:31;10.90;;;5.87;;
3217;SDS011;1621;49.702;8.618;2022-10-31T03:21:01;10.43;;;5.13;;
3217;SDS011;1621;49.702;8.618;2022-10-31T03:23:30;10.73;;;5.77;;
3217;SDS011;1621;49.702;8.618;2022-10-31T03:25:58;11.80;;;6.70;;
3217;SDS011;1621;49.702;8.618;2022-10-31T03:28:28;13.30;;;6.00;;
3217;SDS011;1621;49.702;8.618;2022-10-31T03:30:55;13.10;;;6.20;;
3217;SDS011;1621;49.702;8.618;2022-10-31T03:33:23;9.13;;;6.17;;
3217;SDS011;1621;49.702;8.618;2022-10-31T03:35:52;15.30;;;5.97;;
3217;SDS011;1621;49.702;8.618;2022-10-31T03:38:20;9.03;;;5.53;;
3217;SDS011;1621;49.702;8.618;2022-10-31T03:40:47;11.70;;;6.07;;
3217;SDS011;1621;49.702;8.618;2022-10-31T03:43:15;10.10;;;5.77;;
3217;SDS011;1621;49.702;8.618;2022-10-31T03:45:43;8.07;;;5.90;;
3217;SDS011;1621;49.702;8.618;2022-10-31T03:48:10;12.80;;;6.90;;
3217;SDS011;1621;49.702;8.618;2022-10-31T03:50:38;10.50;;;5.97;;
3217;SDS011;1621;49.702;8.618;2022-10-31T03:53:06;11.33;;;5.83;;
3217;SDS011;1621;49.702;8.618;2022-10-31T03:55:38;9.00;;;5.57;;
3217;SDS011;1621;49.702;8.618;2022-10-31T03:58:06;10.53;;;6.10;;
3217;SDS011;1621;49.702;8.618;2022-10-31T04:00:34;10.33;;;5.77;;
3217;SDS011;1621;49.702;8.618;2022-10-31T04:03:01;8.80;;;5.80;;
3217;SDS011;1621;49.702;8.618;2022-10-31T04:05:31;7.30;;;5.80;;
3217;SDS011;1621;49.702;8.618;2022-10-31T04:07:58;10.17;;;5.83;;
3217;SDS011;1621;49.702;8.618;2022-10-31T04:10:25;17.93;;;5.90;;
3217;SDS011;1621;49.702;8.618;2022-10-31T04:12:54;11.40;;;6.40;;
3217;SDS011;1621;49.702;8.618;2022-10-31T04:15:22;13.50;;;7.60;;
3217;SDS011;1621;49.702;8.618;2022-10-31T04:17:50;11.57;;;5.10;;
3217;SDS011;1621;49.702;8.618;2022-10-31T04:20:17;11.27;;;6.10;;
3217;SDS011;1621;49.702;8.618;2022-10-31T04:22:43;12.20;;;6.10;;
3217;SDS011;1621;49.702;8.618;2022-10-31T04:25:10;13.70;;;6.33;;
3217;SDS011;1621;49.702;8.618;2022-10-31T04:27:36;12.83;;;6.37;;
3217;SDS011;1621;49.702;8.618;2022-10-31T04:30:04;9.43;;;5.13;;
3217;SDS011;1621;49.702;8.618;2022-10-31T04:32:31;12.47;;;6.10;;
3217;SDS011;1621;49.702;8.618;2022-10-31T04:34:57;19.10;;;6.77;;
3217;SDS011;1621;49.702;8.618;2022-10-31T04:37:24;10.40;;;6.17;;
3217;SDS011;1621;49.702;8.618;2022-10-31T04:39:50;14.03;;;5.90;;
3217;SDS011;1621;49.702;8.618;2022-10-31T04:42:16;10.07;;;6.00;;
3217;SDS011;1621;49.702;8.618;2022-10-31T04:44:42;9.17;;;6.13;;
3217;SDS011;1621;49.702;8.618;2022-10-31T04:47:10;8.67;;;5.37;;
3217;SDS011;1621;49.702;8.618;2022-10-31T04:49:36;10.83;;;6.47;;
3217;SDS011;1621;49.702;8.618;2022-10-31T04:52:03;8.40;;;5.60;;
3217;SDS011;1621;49.702;8.618;2022-10-31T04:54:29;12.33;;;6.90;;
3217;SDS011;1621;49.702;8.618;2022-10-31T04:56:56;12.13;;;6.47;;
3217;SDS011;1621;49.702;8.618;2022-10-31T04:59:22;14.57;;;7.53;;
3217;SDS011;1621;49.702;8.618;2022-10-31T05:01:48;11.23;;;6.93;;
3217;SDS011;1621;49.702;8.618;2022-10-31T05:04:16;11.17;;;6.43;;
3217;SDS011;1621;49.702;8.618;2022-10-31T05:06:42;10.30;;;7.00;;
3217;SDS011;1621;49.702;8.618;2022-10-31T05:09:09;13.10;;;6.50;;
3217;SDS011;1621;49.702;8.618;2022-10-31T05:11:35;10.50;;;6.10;;
3217;SDS011;1621;49.702;8.618;2022-10-31T05:14:01;12.20;;;6.57;;
3217;SDS011;1621;49.702;8.618;2022-10-31T05:16:28;8.13;;;6.03;;
3217;SDS011;1621;49.702;8.618;2022-10-31T05:18:54;9.80;;;7.03;;
3217;SDS011;1621;49.702;8.618;2022-10-31T05:21:22;11.53;;;6.00;;
3217;SDS011;1621;49.702;8.618;2022-10-31T05:23:48;11.63;;;6.40;;
3217;SDS011;1621;49.702;8.618;2022-10-31T05:26:15;11.17;;;6.53;;
3217;SDS011;1621;49.702;8.618;2022-10-31T05:28:41;10.27;;;5.83;;
3217;SDS011;1621;49.702;8.618;2022-10-31T05:31:07;14.13;;;6.90;;
3217;SDS011;1621;49.702;8.618;2022-10-31T05:33:34;11.57;;;6.47;;
3217;SDS011;1621;49.702;8.618;2022-10-31T05:36:00;10.17;;;6.17;;
3217;SDS011;1621;49.702;8.618;2022-10-31T05:38:28;10.47;;;6.73;;
3217;SDS011;1621;49.702;8.618;2022-10-31T05:40:54;8.60;;;6.20;;
3217;SDS011;1621;49.702;8.618;2022-10-31T05:43:22;12.30;;;7.20;;
3217;SDS011;1621;49.702;8.618;2022-10-31T05:45:51;10.80;;;6.47;;
3217;SDS011;1621;49.702;8.618;2022-10-31T05:48:17;11.50;;;6.60;;
3217;SDS011;1621;49.702;8.618;2022-10-31T05:50:44;8.80;;;6.10;;
3217;SDS011;1621;49.702;8.618;2022-10-31T05:53:10;9.80;;;6.47;;
3217;SDS011;1621;49.702;8.618;2022-10-31T05:55:38;12.03;;;5.83;;
3217;SDS011;1621;49.702;8.618;2022-10-31T05:58:05;10.93;;;6.30;;
3217;SDS011;1621;49.702;8.618;2022-10-31T06:00:32;14.07;;;6.73;;
3217;SDS011;1621;49.702;8.618;2022-10-31T06:03:00;12.97;;;6.63;;
3217;SDS011;1621;49.702;8.618;2022-10-31T06:05:26;9.93;;;6.37;;
3217;SDS011;1621;49.702;8.618;2022-10-31T06:07:53;10.00;;;6.13;;
3217;SDS011;1621;49.702;8.618;2022-10-31T06:10:19;12.40;;;6.83;;
3217;SDS011;1621;49.702;8.618;2022-10-31T06:12:47;11.70;;;7.00;;
3217;SDS011;1621;49.702;8.618;2022-10-31T06:15:14;10.87;;;6.50;;
3217;SDS011;1621;49.702;8.618;2022-10-31T06:17:40;10.17;;;7.10;;
3217;SDS011;1621;49.702;8.618;2022-10-31T06:20:07;10.53;;;6.70;;
3217;SDS011;1621;49.702;8.618;2022-10-31T06:22:34;10.23;;;6.90;;
3217;SDS011;1621;49.702;8.618;2022-10-31T06:25:00;10.13;;;6.77;;
3217;SDS011;1621;49.702;8.618;2022-10-31T06:27:26;11.83;;;6.87;;
3217;SDS011;1621;49.702;8.618;2022-10-31T06:29:54;11.87;;;7.57;;
3217;SDS011;1621;49.702;8.618;2022-10-31T06:32:21;12.83;;;6.97;;
3217;SDS011;1621;49.702;8.618;2022-10-31T06:34:48;12.57;;;6.90;;
3217;SDS011;1621;49.702;8.618;2022-10-31T06:37:14;10.50;;;7.10;;
3217;SDS011;1621;49.702;8.618;2022-10-31T06:39:41;14.93;;;6.90;;
3217;SDS011;1621;49.702;8.618;2022-10-31T06:42:07;9.97;;;5.70;;
3217;SDS011;1621;49.702;8.618;2022-10-31T06:44:33;9.33;;;6.40;;
3217;SDS011;1621;49.702;8.618;2022-10-31T06:47:01;9.20;;;6.30;;
3217;SDS011;1621;49.702;8.618;2022-10-31T06:49:28;9.80;;;6.83;;
3217;SDS011;1621;49.702;8.618;2022-10-31T06:51:54;11.20;;;6.60;;
3217;SDS011;1621;49.702;8.618;2022-10-31T06:54:29;12.50;;;7.27;;
3217;SDS011;1621;49.702;8.618;2022-10-31T06:56:56;13.40;;;7.73;;
3217;SDS011;1621;49.702;8.618;2022-10-31T06:59:22;12.17;;;7.07;;
3217;SDS011;1621;49.702;8.618;2022-10-31T07:01:49;11.53;;;6.60;;
3217;SDS011;1621;49.702;8.618;2022-10-31T07:04:16;11.00;;;6.87;;
3217;SDS011;1621;49.702;8.618;2022-10-31T07:06:43;15.57;;;7.43;;
3217;SDS011;1621;49.702;8.618;2022-10-31T07:09:09;13.10;;;7.27;;
3217;SDS011;1621;49.702;8.618;2022-10-31T07:11:36;11.10;;;7.43;;
3217;SDS011;1621;49.702;8.618;2022-10-31T07:14:02;13.30;;;8.43;;
3217;SDS011;1621;49.702;8.618;2022-10-31T07:16:28;13.23;;;8.00;;
3217;SDS011;1621;49.702;8.618;2022-10-31T07:18:55;13.60;;;8.33;;
3217;SDS011;1621;49.702;8.618;2022-10-31T07:21:22;13.97;;;8.03;;
3217;SDS011;1621;49.702;8.618;2022-10-31T07:23:49;13.67;;;7.40;;
3217;SDS011;1621;49.702;8.618;2022-10-31T07:26:15;13.53;;;7.50;;
3217;SDS011;1621;49.702;8.618;2022-10-31T07:28:41;13.00;;;7.27;;
3217;SDS011;1621;49.702;8.618;2022-10-31T07:31:08;10.80;;;7.37;;
3217;SDS011;1621;49.702;8.618;2022-10-31T07:33:34;18.20;;;8.43;;
3217;SDS011;1621;49.702;8.618;2022-10-31T07:36:00;13.70;;;7.87;;
3217;SDS011;1621;49.702;8.618;2022-10-31T07:38:28;11.83;;;7.93;;
3217;SDS011;1621;49.702;8.618;2022-10-31T07:40:55;14.87;;;8.10;;
3217;SDS011;1621;49.702;8.618;2022-10-31T07:43:22;13.03;;;8.40;;
3217;SDS011;1621;49.702;8.618;2022-10-31T07:45:49;20.53;;;8.17;;
3217;SDS011;1621;49.702;8.618;2022-10-31T07:48:16;17.00;;;9.37;;
3217;SDS011;1621;49.702;8.618;2022-10-31T07:50:42;17.60;;;10.27;;
3217;SDS011;1621;49.702;8.618;2022-10-31T07:53:09;13.63;;;9.80;;
3217;SDS011;1621;49.702;8.618;2022-10-31T07:55:37;16.33;;;10.90;;
3217;SDS011;1621;49.702;8.618;2022-10-31T07:58:04;10.20;;;7.83;;
3217;SDS011;1621;49.702;8.618;2022-10-31T08:00:36;12.50;;;8.47;;
3217;SDS011;1621;49.702;8.618;2022-10-31T08:03:03;13.20;;;7.13;;
3217;SDS011;1621;49.702;8.618;2022-10-31T08:05:29;9.90;;;7.17;;
3217;SDS011;1621;49.702;8.618;2022-10-31T08:07:56;15.23;;;8.50;;
3217;SDS011;1621;49.702;8.618;2022-10-31T08:10:22;12.43;;;8.03;;
3217;SDS011;1621;49.702;8.618;2022-10-31T08:12:55;13.53;;;7.90;;
3217;SDS011;1621;49.702;8.618;2022-10-31T08:15:22;10.70;;;6.50;;
3217;SDS011;1621;49.702;8.618;2022-10-31T08:17:49;16.47;;;8.50;;
3217;SDS011;1621;49.702;8.618;2022-10-31T08:20:15;13.20;;;7.47;;
3217;SDS011;1621;49.702;8.618;2022-10-31T08:22:41;12.50;;;7.33;;
3217;SDS011;1621;49.702;8.618;2022-10-31T08:25:08;11.07;;;7.67;;
3217;SDS011;1621;49.702;8.618;2022-10-31T08:27:34;11.13;;;6.83;;
3217;SDS011;1621;49.702;8.618;2022-10-31T08:30:02;15.93;;;8.30;;
3217;SDS011;1621;49.702;8.618;2022-10-31T08:32:28;11.93;;;7.47;;
3217;SDS011;1621;49.702;8.618;2022-10-31T08:34:55;14.87;;;8.07;;
3217;SDS011;1621;49.702;8.618;2022-10-31T08:37:21;12.07;;;7.40;;
3217;SDS011;1621;49.702;8.618;2022-10-31T08:39:47;12.67;;;8.73;;
3217;SDS011;1621;49.702;8.618;2022-10-31T08:42:14;11.17;;;8.00;;
3217;SDS011;1621;49.702;8.618;2022-10-31T08:44:40;11.20;;;7.93;;
3217;SDS011;1621;49.702;8.618;2022-10-31T08:47:08;16.47;;;9.13;;
3217;SDS011;1621;49.702;8.618;2022-10-31T08:49:34;11.00;;;7.40;;
3217;SDS011;1621;49.702;8.618;2022-10-31T08:52:01;11.60;;;7.73;;
3217;SDS011;1621;49.702;8.618;2022-10-31T08:54:27;15.07;;;8.00;;
3217;SDS011;1621;49.702;8.618;2022-10-31T08:56:56;11.67;;;8.00;;
3217;SDS011;1621;49.702;8.618;2022-10-31T08:59:23;11.23;;;7.73;;
3217;SDS011;1621;49.702;8.618;2022-10-31T09:01:49;12.53;;;7.80;;
3217;SDS011;1621;49.702;8.618;2022-10-31T09:04:17;13.77;;;8.87;;
3217;SDS011;1621;49.702;8.618;2022-10-31T09:06:43;12.00;;;7.63;;
3217;SDS011;1621;49.702;8.618;2022-10-31T09:09:09;10.50;;;7.90;;
3217;SDS011;1621;49.702;8.618;2022-10-31T09:11:36;12.50;;;8.30;;
3217;SDS011;1621;49.702;8.618;2022-10-31T09:14:02;17.40;;;7.87;;
3217;SDS011;1621;49.702;8.618;2022-10-31T09:16:28;11.87;;;8.03;;
3217;SDS011;1621;49.702;8.618;2022-10-31T09:18:55;13.73;;;8.33;;
3217;SDS011;1621;49.702;8.618;2022-10-31T09:21:24;15.20;;;8.23;;
3217;SDS011;1621;49.702;8.618;2022-10-31T09:23:50;12.17;;;8.80;;
3217;SDS011;1621;49.702;8.618;2022-10-31T09:26:19;11.30;;;8.67;;
3217;SDS011;1621;49.702;8.618;2022-10-31T09:28:45;11.80;;;8.43;;
3217;SDS011;1621;49.702;8.618;2022-10-31T09:31:12;14.17;;;7.73;;
3217;SDS011;1621;49.702;8.618;2022-10-31T09:33:38;10.93;;;8.27;;
3217;SDS011;1621;49.702;8.618;2022-10-31T09:36:04;12.23;;;8.40;;
3217;SDS011;1621;49.702;8.618;2022-10-31T09:41:04;13.30;;;8.30;;
3217;SDS011;1621;49.702;8.618;2022-10-31T09:43:33;11.00;;;7.60;;
3217;SDS011;1621;49.702;8.618;2022-10-31T09:46:04;12.73;;;8.37;;
3217;SDS011;1621;49.702;8.618;2022-10-31T09:48:48;17.13;;;8.63;;
3217;SDS011;1621;49.702;8.618;2022-10-31T09:51:20;13.80;;;8.47;;
3217;SDS011;1621;49.702;8.618;2022-10-31T09:53:48;10.73;;;7.80;;
3217;SDS011;1621;49.702;8.618;2022-10-31T09:56:18;11.57;;;7.60;;
3217;SDS011;1621;49.702;8.618;2022-10-31T09:58:46;13.93;;;8.67;;
3217;SDS011;1621;49.702;8.618;2022-10-31T10:01:25;11.03;;;7.70;;
3217;SDS011;1621;49.702;8.618;2022-10-31T10:03:55;12.00;;;8.93;;
3217;SDS011;1621;49.702;8.618;2022-10-31T10:06:23;10.10;;;8.30;;
3217;SDS011;1621;49.702;8.618;2022-10-31T10:08:50;11.30;;;7.50;;
3217;SDS011;1621;49.702;8.618;2022-10-31T10:11:22;14.67;;;8.67;;
3217;SDS011;1621;49.702;8.618;2022-10-31T10:13:54;9.30;;;7.50;;
3217;SDS011;1621;49.702;8.618;2022-10-31T10:16:28;14.03;;;8.53;;
3217;SDS011;1621;49.702;8.618;2022-10-31T10:19:00;14.40;;;8.40;;
3217;SDS011;1621;49.702;8.618;2022-10-31T10:21:31;17.70;;;8.33;;
3217;SDS011;1621;49.702;8.618;2022-10-31T10:24:05;14.83;;;8.87;;
3217;SDS011;1621;49.702;8.618;2022-10-31T10:26:37;13.33;;;9.03;;
3217;SDS011;1621;49.702;8.618;2022-10-31T10:29:08;14.23;;;8.80;;
3217;SDS011;1621;49.702;8.618;2022-10-31T10:31:39;13.73;;;9.50;;
3217;SDS011;1621;49.702;8.618;2022-10-31T10:34:11;12.40;;;7.73;;
3217;SDS011;1621;49.702;8.618;2022-10-31T10:36:40;12.87;;;8.80;;
3217;SDS011;1621;49.702;8.618;2022-10-31T10:39:10;12.00;;;8.70;;
3217;SDS011;1621;49.702;8.618;2022-10-31T10:41:41;13.93;;;8.80;;
3217;SDS011;1621;49.702;8.618;2022-10-31T10:44:09;15.17;;;8.60;;
3217;SDS011;1621;49.702;8.618;2022-10-31T10:46:40;14.10;;;9.70;;
3217;SDS011;1621;49.702;8.618;2022-10-31T10:49:26;14.13;;;9.20;;
3217;SDS011;1621;49.702;8.618;2022-10-31T10:51:57;16.50;;;10.20;;
3217;SDS011;1621;49.702;8.618;2022-10-31T10:54:38;14.67;;;9.73;;
3217;SDS011;1621;49.702;8.618;2022-10-31T10:57:10;17.37;;;9.90;;
3217;SDS011;1621;49.702;8.618;2022-10-31T10:59:40;16.70;;;9.80;;
3217;SDS011;1621;49.702;8.618;2022-10-31T11:02:15;18.27;;;10.87;;
3217;SDS011;1621;49.702;8.618;2022-10-31T11:04:42;16.30;;;10.43;;
3217;SDS011;1621;49.702;8.618;2022-10-31T11:07:09;17.73;;;10.83;;
3217;SDS011;1621;49.702;8.618;2022-10-31T11:09:36;21.93;;;11.37;;
3217;SDS011;1621;49.702;8.618;2022-10-31T11:12:05;19.27;;;10.80;;
3217;SDS011;1621;49.702;8.618;2022-10-31T11:14:35;22.10;;;11.20;;
3217;SDS011;1621;49.702;8.618;2022-10-31T11:17:07;15.80;;;10.00;;
3217;SDS011;1621;49.702;8.618;2022-10-31T11:19:35;16.27;;;12.03;;
3217;SDS011;1621;49.702;8.618;2022-10-31T11:22:05;18.47;;;10.73;;
3217;SDS011;1621;49.702;8.618;2022-10-31T11:24:35;19.27;;;12.67;;
3217;SDS011;1621;49.702;8.618;2022-10-31T11:27:05;15.63;;;11.53;;
3217;SDS011;1621;49.702;8.618;2022-10-31T11:29:37;19.03;;;13.13;;
3217;SDS011;1621;49.702;8.618;2022-10-31T11:32:03;19.00;;;13.63;;
3217;SDS011;1621;49.702;8.618;2022-10-31T11:34:30;24.97;;;13.37;;
3217;SDS011;1621;49.702;8.618;2022-10-31T11:37:00;23.13;;;14.27;;
3217;SDS011;1621;49.702;8.618;2022-10-31T11:39:27;19.33;;;13.83;;
3217;SDS011;1621;49.702;8.618;2022-10-31T11:41:54;26.77;;;13.57;;
3217;SDS011;1621;49.702;8.618;2022-10-31T11:44:24;21.83;;;15.50;;
3217;SDS011;1621;49.702;8.618;2022-10-31T11:46:54;21.03;;;13.90;;
3217;SDS011;1621;49.702;8.618;2022-10-31T11:49:23;17.57;;;12.50;;
3217;SDS011;1621;49.702;8.618;2022-10-31T11:51:52;22.27;;;12.80;;
3217;SDS011;1621;49.702;8.618;2022-10-31T11:54:20;18.90;;;13.63;;
3217;SDS011;1621;49.702;8.618;2022-10-31T11:56:47;26.20;;;14.03;;
3217;SDS011;1621;49.702;8.618;2022-10-31T11:59:24;18.47;;;12.10;;
3217;SDS011;1621;49.702;8.618;2022-10-31T12:01:53;22.23;;;14.03;;
3217;SDS011;1621;49.702;8.618;2022-10-31T12:04:22;26.07;;;13.57;;
3217;SDS011;1621;49.702;8.618;2022-10-31T12:06:50;21.87;;;12.70;;
3217;SDS011;1621;49.702;8.618;2022-10-31T12:09:19;20.90;;;12.33;;
3217;SDS011;1621;49.702;8.618;2022-10-31T12:11:48;21.67;;;12.80;;
3217;SDS011;1621;49.702;8.618;2022-10-31T12:14:21;18.40;;;11.47;;
3217;SDS011;1621;49.702;8.618;2022-10-31T12:16:51;23.70;;;11.90;;
3217;SDS011;1621;49.702;8.618;2022-10-31T12:19:23;16.77;;;11.40;;
3217;SDS011;1621;49.702;8.618;2022-10-31T12:22:03;17.57;;;11.43;;
3217;SDS011;1621;49.702;8.618;2022-10-31T12:24:34;20.93;;;13.40;;
3217;SDS011;1621;49.702;8.618;2022-10-31T12:27:07;19.67;;;15.10;;
3217;SDS011;1621;49.702;8.618;2022-10-31T12:29:44;24.70;;;14.87;;
3217;SDS011;1621;49.702;8.618;2022-10-31T12:32:20;23.70;;;16.20;;
3217;SDS011;1621;49.702;8.618;2022-10-31T12:34:53;18.90;;;12.90;;
3217;SDS011;1621;49.702;8.618;2022-10-31T12:37:28;24.00;;;12.83;;
3217;SDS011;1621;49.702;8.618;2022-10-31T12:40:01;20.30;;;11.70;;
3217;SDS011;1621;49.702;8.618;2022-10-31T12:42:35;19.67;;;12.23;;
3217;SDS011;1621;49.702;8.618;2022-10-31T12:45:11;21.23;;;12.50;;
3217;SDS011;1621;49.702;8.618;2022-10-31T12:47:52;17.80;;;12.67;;
3217;SDS011;1621;49.702;8.618;2022-10-31T12:50:31;18.20;;;11.23;;
3217;SDS011;1621;49.702;8.618;2022-10-31T12:53:02;18.93;;;10.80;;
3217;SDS011;1621;49.702;8.618;2022-10-31T12:55:35;14.67;;;10.17;;
3217;SDS011;1621;49.702;8.618;2022-10-31T12:58:04;15.27;;;10.23;;
3217;SDS011;1621;49.702;8.618;2022-10-31T13:00:34;19.93;;;10.57;;
3217;SDS011;1621;49.702;8.618;2022-10-31T13:03:05;17.53;;;11.30;;
3217;SDS011;1621;49.702;8.618;2022-10-31T13:05:37;20.93;;;11.23;;
3217;SDS011;1621;49.702;8.618;2022-10-31T13:08:05;17.50;;;10.90;;
3217;SDS011;1621;49.702;8.618;2022-10-31T13:10:34;17.37;;;11.07;;
3217;SDS011;1621;49.702;8.618;2022-10-31T13:13:07;19.87;;;10.73;;
3217;SDS011;1621;49.702;8.618;2022-10-31T13:15:41;16.93;;;10.20;;
3217;SDS011;1621;49.702;8.618;2022-10-31T13:18:12;17.90;;;10.63;;
3217;SDS011;1621;49.702;8.618;2022-10-31T13:20:43;16.70;;;10.63;;
3217;SDS011;1621;49.702;8.618;2022-10-31T13:23:11;17.07;;;9.40;;
3217;SDS011;1621;49.702;8.618;2022-10-31T13:25:42;15.53;;;9.90;;
3217;SDS011;1621;49.702;8.618;2022-10-31T13:28:12;14.90;;;9.37;;
3217;SDS011;1621;49.702;8.618;2022-10-31T13:30:41;16.77;;;9.47;;
3217;SDS011;1621;49.702;8.618;2022-10-31T13:33:10;16.93;;;10.00;;
3217;SDS011;1621;49.702;8.618;2022-10-31T13:35:51;13.93;;;9.10;;
3217;SDS011;1621;49.702;8.618;2022-10-31T13:38:33;13.70;;;9.07;;
3217;SDS011;1621;49.702;8.618;2022-10-31T13:41:04;16.37;;;10.73;;
3217;SDS011;1621;49.702;8.618;2022-10-31T13:43:33;25.40;;;12.73;;
3217;SDS011;1621;49.702;8.618;2022-10-31T13:48:45;17.77;;;10.50;;
3217;SDS011;1621;49.702;8.618;2022-10-31T13:51:11;19.27;;;9.73;;
3217;SDS011;1621;49.702;8.618;2022-10-31T13:53:44;19.90;;;9.40;;
3217;SDS011;1621;49.702;8.618;2022-10-31T13:56:14;18.30;;;8.77;;
3217;SDS011;1621;49.702;8.618;2022-10-31T13:58:41;15.50;;;9.73;;
3217;SDS011;1621;49.702;8.618;2022-10-31T14:01:19;18.53;;;10.17;;
3217;SDS011;1621;49.702;8.618;2022-10-31T14:03:47;15.23;;;8.83;;
3217;SDS011;1621;49.702;8.618;2022-10-31T14:06:14;17.60;;;9.33;;
3217;SDS011;1621;49.702;8.618;2022-10-31T14:08:41;16.50;;;10.03;;
3217;SDS011;1621;49.702;8.618;2022-10-31T14:11:18;20.23;;;9.80;;
3217;SDS011;1621;49.702;8.618;2022-10-31T14:13:46;19.87;;;10.10;;
3217;SDS011;1621;49.702;8.618;2022-10-31T14:16:17;17.30;;;8.53;;
3217;SDS011;1621;49.702;8.618;2022-10-31T14:18:45;16.30;;;10.03;;
3217;SDS011;1621;49.702;8.618;2022-10-31T14:21:15;18.00;;;9.27;;
3217;SDS011;1621;49.702;8.618;2022-10-31T14:23:42;16.53;;;9.13;;
3217;SDS011;1621;49.702;8.618;2022-10-31T14:26:18;16.77;;;8.60;;
3217;SDS011;1621;49.702;8.618;2022-10-31T14:28:45;14.10;;;8.87;;
3217;SDS011;1621;49.702;8.618;2022-10-31T14:31:29;26.40;;;9.50;;
3217;SDS011;1621;49.702;8.618;2022-10-31T14:33:57;25.47;;;9.60;;
3217;SDS011;1621;49.702;8.618;2022-10-31T14:36:24;14.67;;;8.23;;
3217;SDS011;1621;49.702;8.618;2022-10-31T14:38:54;22.37;;;8.60;;
3217;SDS011;1621;49.702;8.618;2022-10-31T14:47:11;17.17;;;8.17;;
3217;SDS011;1621;49.702;8.618;2022-10-31T14:49:49;14.40;;;7.63;;
3217;SDS011;1621;49.702;8.618;2022-10-31T14:52:17;13.90;;;7.73;;
3217;SDS011;1621;49.702;8.618;2022-10-31T14:54:45;17.00;;;9.50;;
3217;SDS011;1621;49.702;8.618;2022-10-31T14:57:14;13.50;;;8.47;;
3217;SDS011;1621;49.702;8.618;2022-10-31T14:59:42;27.73;;;8.67;;
3217;SDS011;1621;49.702;8.618;2022-10-31T15:02:14;14.37;;;8.97;;
3217;SDS011;1621;49.702;8.618;2022-10-31T15:04:41;16.50;;;8.73;;
3217;SDS011;1621;49.702;8.618;2022-10-31T15:07:10;10.63;;;8.67;;
3217;SDS011;1621;49.702;8.618;2022-10-31T15:09:37;14.50;;;8.93;;
3217;SDS011;1621;49.702;8.618;2022-10-31T15:12:20;13.23;;;8.37;;
3217;SDS011;1621;49.702;8.618;2022-10-31T15:14:47;16.50;;;9.13;;
3217;SDS011;1621;49.702;8.618;2022-10-31T15:17:15;14.47;;;8.00;;
3217;SDS011;1621;49.702;8.618;2022-10-31T15:19:42;20.13;;;7.57;;
3217;SDS011;1621;49.702;8.618;2022-10-31T15:22:09;17.83;;;8.20;;